Time;durP1;ratioP1;P1;durP2;ratioP2;P2;SDS_P1;SDS_P2;PMS_P1;PMS_P2;Temp;Humidity;BMP_temperature;BMP_pressure;BME280_temperature;BME280_humidity;BME280_pressure;Samples;Min_cycle;Max_cycle;Signal;HPM_P1;HPM_P2
2022/04/30 00:00:11;;;;;;;12.20;4.10;;;;;;;43.07;4.61;100903.81;5055673;28;20028;-65
2022/04/30 00:02:41;;;;;;;11.27;3.78;;;;;;;44.64;3.78;100896.19;5055981;28;20596;-65
2022/04/30 00:05:09;;;;;;;10.27;3.47;;;;;;;41.81;4.55;100893.06;5055058;28;20497;-65
2022/04/30 00:07:36;;;;;;;11.82;3.67;;;;;;;44.19;4.23;100888.94;5037544;28;20037;-65
2022/04/30 00:10:04;;;;;;;11.73;3.42;;;;;;;45.14;3.32;100891.19;5054310;28;20094;-67
2022/04/30 00:12:31;;;;;;;10.93;3.38;;;;;;;44.88;3.55;100893.16;5044424;28;20025;-65
2022/04/30 00:14:59;;;;;;;10.98;3.45;;;;;;;47.68;2.04;100893.59;5044003;28;20033;-66
2022/04/30 00:17:26;;;;;;;13.00;3.25;;;;;;;43.50;3.60;100884.47;5045785;28;20379;-63
2022/04/30 00:19:53;;;;;;;13.15;3.72;;;;;;;42.88;4.45;100888.78;5052364;28;20029;-66
2022/04/30 00:22:19;;;;;;;14.38;3.75;;;;;;;42.40;4.83;100890.75;5063908;28;20035;-67
2022/04/30 00:24:47;;;;;;;12.40;3.13;;;;;;;45.90;3.65;100884.53;5061055;28;20099;-67
2022/04/30 00:27:15;;;;;;;11.93;3.42;;;;;;;47.23;2.82;100884.78;5061178;28;20520;-67
2022/04/30 00:29:42;;;;;;;16.60;3.65;;;;;;;46.57;2.37;100885.16;5073673;28;20370;-65
2022/04/30 00:32:11;;;;;;;10.35;3.50;;;;;;;43.38;4.25;100895.66;5075088;28;20031;-65
2022/04/30 00:34:38;;;;;;;12.68;3.38;;;;;;;40.95;5.14;100891.06;5071107;28;20035;-65
2022/04/30 00:37:05;;;;;;;13.88;3.55;;;;;;;40.28;5.86;100902.28;5043644;28;20441;-67
2022/04/30 00:39:33;;;;;;;13.05;3.70;;;;;;;39.70;5.77;100897.13;5047542;28;20021;-65
2022/04/30 00:42:00;;;;;;;15.07;4.18;;;;;;;37.96;6.63;100887.25;5044357;28;20243;-66
2022/04/30 00:44:28;;;;;;;15.73;3.40;;;;;;;39.25;5.79;100873.47;5044636;28;20103;-65
2022/04/30 00:46:55;;;;;;;11.52;3.25;;;;;;;38.43;6.14;100885.91;5042344;28;20030;-64
2022/04/30 00:49:22;;;;;;;13.27;3.50;;;;;;;37.30;6.77;100877.28;5044433;28;20119;-65
2022/04/30 00:51:50;;;;;;;11.57;3.28;;;;;;;36.85;7.69;100861.00;5043617;28;20088;-65
2022/04/30 00:54:20;;;;;;;13.50;3.67;;;;;;;36.38;7.38;100876.66;5042947;28;20104;-65
2022/04/30 00:57:02;;;;;;;15.35;3.75;;;;;;;35.79;7.88;100877.47;5046249;28;20035;-64
2022/04/30 00:59:33;;;;;;;9.05;3.47;;;;;;;35.79;8.05;100874.63;5059913;28;20024;-65
2022/04/30 01:02:00;;;;;;;11.40;3.42;;;;;;;36.66;7.49;100869.56;5066741;28;20040;-66
2022/04/30 01:04:45;;;;;;;16.67;3.97;;;;;;;35.66;7.82;100863.97;5074844;28;20086;-67
2022/04/30 01:07:12;;;;;;;16.55;4.07;;;;;;;35.33;8.38;100853.66;5074336;28;20036;-67
2022/04/30 01:09:42;;;;;;;17.08;3.85;;;;;;;35.49;8.03;100856.63;5062447;28;20471;-64
2022/04/30 01:12:10;;;;;;;13.48;3.70;;;;;;;35.47;8.42;100864.75;5074396;28;20468;-66
2022/04/30 01:14:39;;;;;;;14.27;4.22;;;;;;;34.93;8.95;100862.03;5074282;28;20104;-66
2022/04/30 01:17:08;;;;;;;14.70;4.22;;;;;;;34.61;9.20;100858.88;5056041;28;20490;-67
2022/04/30 01:19:37;;;;;;;18.50;5.10;;;;;;;34.63;9.00;100857.22;5073968;28;20028;-66
2022/04/30 01:22:10;;;;;;;10.50;3.75;;;;;;;34.23;9.14;100861.81;5056030;28;20133;-65
2022/04/30 01:24:38;;;;;;;13.45;4.13;;;;;;;34.24;9.81;100857.75;5074380;28;20033;-64
2022/04/30 01:27:08;;;;;;;17.60;4.68;;;;;;;34.18;9.24;100859.47;5073985;28;20064;-65
2022/04/30 01:29:37;;;;;;;18.40;4.25;;;;;;;33.68;9.58;100847.97;5069093;28;20063;-65
2022/04/30 01:37:38;;;;;;;19.10;3.90;;;;;;;32.53;10.53;100852.97;5053927;28;20434;-65
2022/04/30 01:40:10;;;;;;;13.88;4.10;;;;;;;32.41;10.71;100857.84;5054314;28;20032;-65
2022/04/30 01:42:40;;;;;;;18.10;4.50;;;;;;;32.25;10.52;100859.53;5064998;28;20021;-65
2022/04/30 01:45:08;;;;;;;14.73;4.30;;;;;;;31.88;10.38;100862.91;5073144;28;20033;-65
2022/04/30 01:47:45;;;;;;;28.52;4.78;;;;;;;31.85;10.53;100853.28;5061537;28;20025;-64
2022/04/30 01:50:13;;;;;;;12.38;4.18;;;;;;;31.58;10.70;100850.91;5053644;28;20116;-64
2022/04/30 01:52:40;;;;;;;13.50;3.92;;;;;;;31.35;10.55;100858.19;5020285;28;20111;-64
2022/04/30 01:55:08;;;;;;;17.08;4.28;;;;;;;30.97;11.63;100855.75;5060245;28;20489;-66
2022/04/30 01:57:34;;;;;;;14.57;5.00;;;;;;;30.75;11.30;100848.53;5046062;28;20029;-64
2022/04/30 02:00:08;;;;;;;17.55;4.72;;;;;;;30.66;11.13;100868.56;5043784;28;20036;-65
2022/04/30 02:02:46;;;;;;;17.63;4.90;;;;;;;30.41;11.25;100867.69;5044301;28;20071;-63
2022/04/30 02:05:16;;;;;;;16.30;5.10;;;;;;;30.18;11.18;100865.22;5044882;28;20029;-64
2022/04/30 02:07:58;;;;;;;22.27;5.15;;;;;;;29.96;11.84;100874.69;5048162;28;20032;-65
2022/04/30 02:10:28;;;;;;;19.25;5.00;;;;;;;29.74;11.58;100880.19;5053386;28;20043;-66
2022/04/30 02:12:55;;;;;;;18.33;5.28;;;;;;;29.56;11.84;100882.06;5055742;28;20029;-66
2022/04/30 02:15:23;;;;;;;23.58;5.97;;;;;;;29.26;12.44;100881.41;5052994;28;20127;-66
2022/04/30 02:17:52;;;;;;;22.30;6.03;;;;;;;28.98;12.54;100868.81;5053121;28;20048;-64
2022/04/30 02:20:24;;;;;;;25.58;6.82;;;;;;;29.07;12.56;100879.66;5035089;28;20124;-64
2022/04/30 02:22:57;;;;;;;26.73;8.30;;;;;;;28.92;12.61;100883.56;5034804;28;20494;-64
2022/04/30 02:25:25;;;;;;;28.00;8.40;;;;;;;28.56;13.08;100872.78;5052874;28;20486;-66
2022/04/30 02:28:04;;;;;;;26.88;10.88;;;;;;;28.34;12.96;100878.50;5034775;28;20048;-64
2022/04/30 02:30:35;;;;;;;21.92;8.35;;;;;;;28.18;13.04;100881.47;5052950;28;20490;-64
2022/04/30 02:33:05;;;;;;;22.38;6.30;;;;;;;28.19;13.15;100886.72;5035180;28;20072;-65
2022/04/30 02:35:34;;;;;;;27.05;6.30;;;;;;;27.93;13.73;100881.16;5035334;28;20032;-64
2022/04/30 02:38:08;;;;;;;27.08;5.93;;;;;;;27.91;13.16;100875.16;5052969;28;20048;-64
2022/04/30 02:40:36;;;;;;;23.13;6.35;;;;;;;27.82;14.30;100891.38;5050166;28;20033;-66
2022/04/30 02:43:08;;;;;;;28.55;5.72;;;;;;;27.61;14.35;100889.06;5051552;28;20129;-64
2022/04/30 02:45:36;;;;;;;33.53;6.57;;;;;;;27.55;13.42;100901.75;5052872;28;20406;-65
2022/04/30 02:48:06;;;;;;;33.75;6.75;;;;;;;27.49;14.52;100898.47;5053011;28;20032;-63
2022/04/30 02:50:34;;;;;;;37.83;7.22;;;;;;;27.33;13.83;100907.00;5052536;28;20041;-64
2022/04/30 02:53:01;;;;;;;30.42;6.60;;;;;;;27.22;14.52;100899.63;5052642;28;20098;-65
2022/04/30 02:55:28;;;;;;;38.60;7.20;;;;;;;27.05;14.01;100898.94;5018676;28;20037;-64
2022/04/30 03:00:47;;;;;;;31.05;7.63;;;;;;;26.92;15.04;100916.19;5051398;28;20044;-64
2022/04/30 03:03:29;;;;;;;59.75;8.70;;;;;;;26.95;16.62;100912.69;5036430;28;20037;-63
2022/04/30 03:05:57;;;;;;;45.20;9.45;;;;;;;26.78;14.17;100925.94;5051531;28;20128;-65
2022/04/30 03:08:26;;;;;;;43.65;9.32;;;;;;;26.68;14.37;100920.97;5051210;28;20057;-64
2022/04/30 03:10:56;;;;;;;84.70;10.90;;;;;;;26.57;16.03;100921.91;5056220;28;20091;-64
2022/04/30 03:13:24;;;;;;;40.85;9.68;;;;;;;26.36;14.89;100914.75;5038541;28;20033;-64
2022/04/30 03:15:56;;;;;;;72.20;11.02;;;;;;;26.23;15.67;100916.06;5038559;28;20036;-63
2022/04/30 03:23:55;;;;;;;48.75;11.98;;;;;;;25.70;15.53;100937.97;5038474;28;20037;-64
2022/04/30 03:26:26;;;;;;;42.55;10.63;;;;;;;25.64;15.36;100936.56;5056293;28;20108;-62
2022/04/30 03:28:54;;;;;;;49.50;10.73;;;;;;;25.44;15.45;100913.44;5038448;28;20037;-64
2022/04/30 03:31:21;;;;;;;42.80;10.80;;;;;;;25.41;15.40;100936.44;5038176;28;20045;-62
2022/04/30 03:33:49;;;;;;;54.20;10.80;;;;;;;25.23;16.14;100933.19;5038320;28;20437;-64
2022/04/30 03:36:19;;;;;;;48.08;11.20;;;;;;;25.06;16.41;100936.31;5056087;28;20378;-64
2022/04/30 03:38:47;;;;;;;57.05;12.77;;;;;;;25.24;16.91;100945.13;5038104;28;20056;-63
2022/04/30 03:41:15;;;;;;;45.42;12.23;;;;;;;25.37;17.38;100952.22;5056151;28;20033;-64
2022/04/30 03:43:42;;;;;;;67.47;13.65;;;;;;;25.24;16.72;100951.50;5056207;28;20379;-63
2022/04/30 03:46:09;;;;;;;70.93;13.55;;;;;;;25.03;16.63;100948.16;5055989;28;20466;-64
2022/04/30 03:48:36;;;;;;;64.35;14.38;;;;;;;24.98;17.38;100945.63;5054691;28;20043;-65
2022/04/30 03:51:05;;;;;;;63.67;14.20;;;;;;;25.07;17.23;100951.03;5055725;28;20044;-63
2022/04/30 03:53:32;;;;;;;55.17;13.73;;;;;;;25.11;17.65;100951.94;5054264;28;20033;-65
2022/04/30 03:56:00;;;;;;;50.40;14.18;;;;;;;25.00;17.11;100960.81;5054474;28;20033;-65
2022/04/30 03:58:27;;;;;;;59.38;13.68;;;;;;;24.92;17.82;100960.94;5055698;28;20044;-64
2022/04/30 04:00:54;;;;;;;56.90;14.65;;;;;;;25.01;18.73;100953.28;5055977;28;20025;-65
2022/04/30 04:03:24;;;;;;;79.10;14.88;;;;;;;25.15;18.18;100966.75;5037760;28;20041;-64
2022/04/30 04:05:51;;;;;;;71.40;14.82;;;;;;;24.94;18.74;100958.59;5054353;28;20232;-63
2022/04/30 04:08:20;;;;;;;59.80;15.00;;;;;;;24.92;18.97;100958.97;5037763;28;20052;-63
2022/04/30 04:10:47;;;;;;;63.03;15.32;;;;;;;24.83;19.00;100961.13;5041434;28;20122;-63
2022/04/30 04:18:44;;;;;;;120.20;63.42;;;;;;;23.72;19.17;100939.56;5037412;28;20067;-64
2022/04/30 04:21:11;;;;;;;199.68;126.75;;;;;;;23.75;18.80;100961.88;5053857;28;20041;-64
2022/04/30 04:26:23;;;;;;;134.57;84.35;;;;;;;23.80;18.92;100953.28;5054949;28;20091;-65
2022/04/30 04:28:50;;;;;;;126.85;57.25;;;;;;;23.77;19.36;100970.66;5053791;28;20049;-64
2022/04/30 04:31:22;;;;;;;136.77;74.63;;;;;;;23.75;19.45;100983.25;5053888;28;20036;-64
2022/04/30 04:33:50;;;;;;;119.65;62.85;;;;;;;23.67;19.66;100984.97;5054973;28;20032;-65
2022/04/30 04:36:17;;;;;;;89.10;40.60;;;;;;;23.52;19.19;100977.34;5055026;28;20100;-64
2022/04/30 04:38:44;;;;;;;113.93;38.97;;;;;;;23.43;19.56;100976.63;5054886;28;20505;-63
2022/04/30 04:41:12;;;;;;;103.68;45.55;;;;;;;23.29;20.30;100976.94;5054659;28;20041;-64
2022/04/30 04:43:39;;;;;;;96.68;35.70;;;;;;;23.23;20.40;100985.84;5042988;28;20538;-64
2022/04/30 04:46:06;;;;;;;92.60;36.15;;;;;;;23.29;20.96;100992.78;5053776;28;20025;-64
2022/04/30 04:48:33;;;;;;;96.35;36.47;;;;;;;23.38;20.35;100996.28;5041189;28;20039;-63
2022/04/30 04:51:01;;;;;;;88.03;34.00;;;;;;;23.20;20.59;100996.47;5052375;28;20049;-64
2022/04/30 04:53:28;;;;;;;101.80;34.03;;;;;;;23.10;22.17;100991.34;5054237;28;20086;-64
2022/04/30 04:55:55;;;;;;;94.22;27.95;;;;;;;23.14;20.86;100997.81;5054481;28;20030;-64
2022/04/30 04:58:22;;;;;;;90.60;27.00;;;;;;;23.04;20.59;100998.28;5036781;28;20040;-63
2022/04/30 05:00:49;;;;;;;101.78;26.33;;;;;;;22.96;21.42;101001.13;5054515;28;20487;-63
2022/04/30 05:03:16;;;;;;;60.60;24.38;;;;;;;22.96;21.62;101004.69;5054703;28;20050;-63
2022/04/30 05:05:42;;;;;;;83.70;24.23;;;;;;;23.01;20.67;100998.16;5035611;28;20120;-62
2022/04/30 05:08:09;;;;;;;81.60;23.30;;;;;;;22.96;20.81;101013.00;5052460;28;20526;-64
2022/04/30 05:10:36;;;;;;;70.53;21.95;;;;;;;22.90;21.44;101011.63;5034365;28;20029;-63
2022/04/30 05:13:03;;;;;;;79.25;23.75;;;;;;;22.66;22.28;101009.53;5051530;28;20033;-63
2022/04/30 05:15:30;;;;;;;75.32;22.15;;;;;;;22.45;21.74;100992.13;5050663;28;20616;-63
2022/04/30 05:17:58;;;;;;;71.43;22.38;;;;;;;22.51;22.19;101008.19;5049244;28;20086;-64
2022/04/30 05:20:25;;;;;;;98.30;26.17;;;;;;;22.38;23.04;101020.34;5035207;28;20044;-64
2022/04/30 05:22:52;;;;;;;91.85;25.73;;;;;;;22.32;23.37;101007.84;5053630;28;20122;-63
2022/04/30 05:25:19;;;;;;;88.63;26.23;;;;;;;22.29;23.87;101016.84;5041426;28;20170;-62
2022/04/30 05:27:46;;;;;;;78.25;26.80;;;;;;;22.31;22.75;101014.53;5047238;28;20134;-64
2022/04/30 05:30:13;;;;;;;86.25;27.15;;;;;;;22.21;22.41;101010.19;5049588;28;20176;-64
2022/04/30 05:32:40;;;;;;;73.43;23.55;;;;;;;22.17;22.52;101012.00;5046638;28;20044;-63
2022/04/30 05:35:07;;;;;;;85.85;23.60;;;;;;;22.11;22.58;101004.25;5048989;28;20021;-62
2022/04/30 05:37:34;;;;;;;79.35;20.95;;;;;;;22.19;22.33;101015.25;5049483;28;20094;-64
2022/04/30 05:40:01;;;;;;;79.50;21.38;;;;;;;22.01;22.94;101005.41;5046829;28;20044;-62
2022/04/30 05:42:27;;;;;;;89.45;23.75;;;;;;;21.94;23.74;101008.72;5049719;28;20493;-63
2022/04/30 05:44:54;;;;;;;96.28;22.02;;;;;;;22.07;22.89;101004.09;5048545;28;20513;-64
2022/04/30 05:47:21;;;;;;;93.63;23.77;;;;;;;21.95;23.03;101010.34;5048003;28;20711;-64
2022/04/30 05:49:48;;;;;;;84.78;22.40;;;;;;;21.91;23.60;101012.16;5047458;28;20398;-64
2022/04/30 05:52:15;;;;;;;88.15;23.63;;;;;;;21.85;23.21;101016.25;5049011;28;20514;-64
2022/04/30 05:54:42;;;;;;;95.45;23.50;;;;;;;21.75;23.59;101026.88;5049647;28;20434;-64
2022/04/30 05:57:08;;;;;;;87.88;22.25;;;;;;;21.54;23.62;101012.97;5042865;28;20418;-64
2022/04/30 05:59:35;;;;;;;81.70;23.67;;;;;;;21.36;23.87;101018.56;5049093;28;20636;-64
2022/04/30 06:02:02;;;;;;;102.30;24.65;;;;;;;21.10;24.42;100995.69;5040791;28;20498;-64
2022/04/30 06:04:29;;;;;;;112.80;25.42;;;;;;;21.17;24.96;101009.78;5047404;28;20479;-64
2022/04/30 06:06:56;;;;;;;116.47;28.83;;;;;;;21.10;25.35;101001.19;5049878;28;20624;-65
2022/04/30 06:09:23;;;;;;;102.03;27.88;;;;;;;21.16;25.52;101018.41;5051264;28;20025;-65
2022/04/30 06:11:52;;;;;;;105.28;26.75;;;;;;;21.04;26.12;101010.81;5049665;28;20056;-64
2022/04/30 06:14:18;;;;;;;96.00;24.90;;;;;;;20.88;26.04;101023.53;5049563;28;20025;-64
2022/04/30 06:16:45;;;;;;;116.72;27.15;;;;;;;20.91;25.88;101020.91;5049046;28;20029;-65
2022/04/30 06:19:12;;;;;;;114.88;27.52;;;;;;;20.86;26.16;101025.81;5049321;28;20037;-63
2022/04/30 06:21:39;;;;;;;142.65;27.17;;;;;;;20.85;26.45;101021.41;5048790;28;20071;-62
2022/04/30 06:24:06;;;;;;;143.30;27.83;;;;;;;20.72;26.81;101015.72;5050357;28;20062;-61
2022/04/30 06:26:33;;;;;;;123.90;27.33;;;;;;;20.71;26.88;101019.63;5050322;28;20503;-64
2022/04/30 06:29:00;;;;;;;125.18;28.15;;;;;;;20.60;26.73;101000.94;5029390;28;20483;-62
2022/04/30 06:31:27;;;;;;;112.18;27.20;;;;;;;20.62;26.70;101015.22;5049789;28;20139;-65
2022/04/30 06:33:54;;;;;;;118.32;26.90;;;;;;;20.54;27.33;101019.63;5050197;28;20509;-64
2022/04/30 06:36:22;;;;;;;116.60;29.52;;;;;;;20.46;27.79;101009.38;5049834;28;20041;-65
2022/04/30 06:38:49;;;;;;;120.85;33.90;;;;;;;20.33;27.61;101007.56;5050336;28;20032;-65
2022/04/30 06:41:17;;;;;;;155.80;41.42;;;;;;;20.38;27.77;101010.16;5050672;28;20029;-67
2022/04/30 06:43:44;;;;;;;140.57;34.13;;;;;;;20.47;27.37;101022.06;5048428;28;20372;-64
2022/04/30 06:46:11;;;;;;;118.50;31.75;;;;;;;20.50;26.99;101024.19;5048816;28;20037;-65
2022/04/30 06:48:38;;;;;;;125.05;33.65;;;;;;;20.70;26.60;101023.53;5031044;28;20025;-65
2022/04/30 06:51:05;;;;;;;120.15;29.42;;;;;;;20.52;27.46;101002.56;5050944;28;20037;-66
2022/04/30 06:59:10;;;;;;;122.78;30.88;;;;;;;20.13;28.67;101023.63;5051286;28;20064;-65
2022/04/30 07:04:07;;;;;;;134.48;30.20;;;;;;;20.16;28.54;101034.00;5048400;28;20457;-65
2022/04/30 07:06:35;;;;;;;148.75;30.02;;;;;;;20.22;28.31;101023.63;5049244;28;20034;-63
2022/04/30 07:09:07;;;;;;;119.97;28.60;;;;;;;20.16;28.63;101022.16;5051051;28;20401;-63
2022/04/30 07:11:35;;;;;;;121.15;29.55;;;;;;;20.05;29.04;101013.34;5048760;28;20095;-65
2022/04/30 07:14:02;;;;;;;125.93;30.15;;;;;;;20.21;28.35;101020.03;5046649;28;20032;-64
2022/04/30 07:16:29;;;;;;;140.13;30.38;;;;;;;20.16;28.81;101022.97;5047603;28;20021;-63
2022/04/30 07:18:55;;;;;;;141.82;31.73;;;;;;;19.97;29.48;101014.16;5028453;28;20064;-65
2022/04/30 07:21:23;;;;;;;130.75;30.73;;;;;;;19.89;29.39;101010.22;5049993;28;20115;-65
2022/04/30 07:23:51;;;;;;;144.18;32.63;;;;;;;19.89;29.53;101015.75;5049414;28;20382;-63
2022/04/30 07:26:18;;;;;;;138.50;30.08;;;;;;;19.88;30.16;101019.63;5049763;28;20479;-65
2022/04/30 07:28:46;;;;;;;144.52;31.85;;;;;;;19.85;29.31;101017.53;5049323;28;20032;-65
2022/04/30 07:31:13;;;;;;;110.13;31.58;;;;;;;19.75;29.81;101019.75;5049675;28;20075;-63
2022/04/30 07:33:41;;;;;;;133.57;33.03;;;;;;;19.78;29.87;101019.13;5048807;28;20079;-66
2022/04/30 07:36:08;;;;;;;135.80;51.95;;;;;;;19.79;30.50;101020.75;5049133;28;20021;-65
2022/04/30 07:38:35;;;;;;;135.35;35.20;;;;;;;19.63;29.77;101014.03;5049610;28;20544;-63
2022/04/30 07:41:02;;;;;;;118.40;38.63;;;;;;;19.63;29.59;101022.31;5050247;28;20029;-65
2022/04/30 07:43:29;;;;;;;137.98;33.65;;;;;;;19.61;30.15;101015.19;5049001;28;20037;-64
2022/04/30 07:45:56;;;;;;;129.38;32.70;;;;;;;19.41;30.01;101010.19;5037672;28;20112;-64
2022/04/30 07:48:22;;;;;;;129.48;32.15;;;;;;;19.35;30.40;101022.47;5049130;28;20033;-64
2022/04/30 07:50:49;;;;;;;121.35;31.90;;;;;;;19.41;30.07;101018.47;5039864;28;20449;-66
2022/04/30 07:53:18;;;;;;;125.70;31.13;;;;;;;19.34;30.11;101020.84;5046876;28;20080;-65
2022/04/30 07:55:45;;;;;;;111.10;30.80;;;;;;;19.32;30.05;101017.59;5050887;28;20047;-65
2022/04/30 07:58:11;;;;;;;109.45;31.23;;;;;;;19.21;30.20;101019.81;5037809;28;20021;-66
2022/04/30 08:00:38;;;;;;;117.95;30.92;;;;;;;19.03;30.35;101004.31;5050250;28;20044;-63
2022/04/30 08:03:08;;;;;;;134.35;33.22;;;;;;;19.06;30.21;101011.13;5050869;28;20078;-64
2022/04/30 08:05:35;;;;;;;148.55;33.25;;;;;;;19.02;29.92;101006.22;5052215;28;20518;-62
2022/04/30 08:08:01;;;;;;;120.82;30.42;;;;;;;19.01;29.79;101003.78;5049811;28;20048;-63
2022/04/30 08:10:29;;;;;;;116.38;31.00;;;;;;;18.91;29.77;101002.13;5053121;28;20043;-62
2022/04/30 08:12:59;;;;;;;131.80;32.85;;;;;;;18.92;29.16;101000.19;5046099;28;20041;-62
2022/04/30 08:15:27;;;;;;;107.88;33.00;;;;;;;18.80;30.02;100995.22;5024351;28;20101;-65
2022/04/30 08:17:54;;;;;;;136.15;34.63;;;;;;;18.82;29.57;100987.47;5069270;28;20501;-65
2022/04/30 08:20:21;;;;;;;136.93;33.92;;;;;;;18.95;29.49;101008.63;5075400;28;20082;-62
2022/04/30 08:22:48;;;;;;;141.77;34.90;;;;;;;18.97;29.45;101000.84;5062587;28;20475;-64
2022/04/30 08:25:15;;;;;;;125.85;34.08;;;;;;;18.88;29.37;101008.25;5055396;28;20467;-65
2022/04/30 08:27:42;;;;;;;121.32;33.03;;;;;;;18.76;29.07;100999.75;5054980;28;20064;-64
2022/04/30 08:30:10;;;;;;;132.65;33.70;;;;;;;18.69;30.13;100999.38;5055070;28;20075;-64
2022/04/30 08:32:37;;;;;;;128.35;31.33;;;;;;;18.80;29.58;101000.75;5054544;28;20426;-64
2022/04/30 08:35:04;;;;;;;103.32;29.80;;;;;;;18.82;29.07;101005.94;5054843;28;20394;-64
2022/04/30 08:37:31;;;;;;;118.50;29.83;;;;;;;18.76;29.29;100997.00;5054647;28;20086;-64
2022/04/30 08:39:57;;;;;;;119.80;31.65;;;;;;;18.74;30.05;100993.75;5054416;28;20045;-64
2022/04/30 08:42:24;;;;;;;118.88;31.50;;;;;;;18.68;30.51;100998.56;5052735;28;20037;-65
2022/04/30 08:44:51;;;;;;;115.07;30.23;;;;;;;18.59;29.92;100994.06;5053037;28;20067;-65
2022/04/30 08:47:18;;;;;;;106.07;29.00;;;;;;;18.66;30.12;100991.72;5053816;28;20657;-64
2022/04/30 08:49:45;;;;;;;99.05;28.63;;;;;;;18.64;30.07;100981.03;5054524;28;20078;-64
2022/04/30 08:52:15;;;;;;;95.32;29.75;;;;;;;18.69;30.14;100983.69;5054107;28;20128;-64
2022/04/30 08:54:42;;;;;;;111.00;29.63;;;;;;;18.64;29.72;100982.97;5054624;28;20033;-64
2022/04/30 08:57:09;;;;;;;119.97;31.38;;;;;;;18.56;29.92;100987.25;5054574;28;20032;-65
2022/04/30 08:59:36;;;;;;;101.82;28.98;;;;;;;18.38;30.07;100980.81;5054425;28;20033;-64
2022/04/30 09:02:10;;;;;;;96.07;28.42;;;;;;;18.31;30.04;100987.84;5054572;28;20395;-65
2022/04/30 09:04:49;;;;;;;117.03;30.45;;;;;;;18.16;31.15;100974.44;5054670;28;20059;-64
2022/04/30 09:07:17;;;;;;;113.82;29.52;;;;;;;18.16;31.30;100980.78;5053652;28;20042;-64
2022/04/30 09:09:44;;;;;;;102.43;29.23;;;;;;;18.16;30.79;100975.25;5054408;28;20047;-65
2022/04/30 09:12:13;;;;;;;97.85;30.10;;;;;;;18.09;30.87;100985.84;5053914;28;20033;-64
2022/04/30 09:14:42;;;;;;;107.03;30.73;;;;;;;18.11;29.11;100984.41;5054233;28;20029;-65
2022/04/30 09:17:09;;;;;;;104.63;29.35;;;;;;;18.13;28.28;100975.84;5054132;28;20029;-65
2022/04/30 09:19:57;;;;;;;98.03;26.23;;;;;;;18.07;26.86;100977.91;5054117;28;20033;-65
2022/04/30 09:22:33;;;;;;;76.80;26.15;;;;;;;18.04;27.28;100974.97;5053812;28;20040;-63
2022/04/30 09:25:04;;;;;;;91.38;24.75;;;;;;;18.02;27.53;100968.97;5052976;28;20043;-64
2022/04/30 09:27:32;;;;;;;85.25;24.88;;;;;;;18.04;27.41;100964.78;5054147;28;20057;-64
2022/04/30 09:29:59;;;;;;;76.50;24.02;;;;;;;17.99;26.73;100962.16;5054083;28;20509;-63
2022/04/30 09:32:26;;;;;;;75.00;22.40;;;;;;;17.98;25.41;100967.97;5053931;28;20025;-63
2022/04/30 09:37:41;;;;;;;55.00;17.67;;;;;;;18.07;24.01;100960.59;5052560;28;20098;-63
2022/04/30 09:40:14;;;;;;;57.17;18.40;;;;;;;18.12;24.12;100971.47;5053712;28;20073;-63
2022/04/30 09:42:48;;;;;;;49.58;18.42;;;;;;;18.09;24.21;100963.84;5056473;28;20025;-62
2022/04/30 09:45:31;;;;;;;62.25;18.35;;;;;;;18.03;24.42;100963.16;5062914;28;20554;-63
2022/04/30 09:48:00;;;;;;;60.28;19.27;;;;;;;18.00;25.32;100971.22;5053715;28;20039;-63
2022/04/30 09:56:08;;;;;;;;;;;;;;;17.72;25.78;100971.25;5054157;28;20045;-64
2022/04/30 09:58:38;;;;;;;54.47;18.77;;;;;;;17.68;26.49;100974.91;5053464;28;19917;-65
2022/04/30 10:01:07;;;;;;;59.03;19.25;;;;;;;17.63;26.25;100964.00;5053475;28;20041;-64
2022/04/30 10:03:34;;;;;;;64.38;18.40;;;;;;;17.55;26.26;100971.00;5053236;28;20035;-63
2022/04/30 10:06:05;;;;;;;58.28;17.65;;;;;;;17.44;26.42;100964.09;5053617;28;20029;-64
2022/04/30 10:08:37;;;;;;;56.30;19.13;;;;;;;17.49;26.19;100964.00;5051913;28;20404;-63
2022/04/30 10:11:42;;;;;;;53.22;18.77;;;;;;;17.49;26.75;100966.75;5046590;28;20036;-62
2022/04/30 10:14:18;;;;;;;51.45;18.35;;;;;;;17.50;26.59;100962.88;5049116;28;20558;-62
2022/04/30 10:17:10;;;;;;;55.42;17.75;;;;;;;17.56;26.41;100963.56;5053163;28;20033;-65
2022/04/30 10:19:32;;;;;;;46.85;17.38;;;;;;;17.57;26.01;100970.69;5052887;28;20063;-63
2022/04/30 10:22:11;;;;;;;50.15;15.93;;;;;;;17.51;26.35;100962.56;5052965;28;20028;-64
2022/04/30 10:24:47;;;;;;;57.28;14.77;;;;;;;17.52;26.05;100971.63;5053166;28;20033;-63
2022/04/30 10:27:18;;;;;;;51.70;13.35;;;;;;;17.55;25.40;100971.00;5052935;28;20064;-63
2022/04/30 10:29:59;;;;;;;51.25;15.55;;;;;;;17.46;25.80;100965.41;5053176;28;20029;-63
2022/04/30 10:32:33;;;;;;;42.40;14.88;;;;;;;17.47;26.10;100963.50;5052988;28;20475;-63
2022/04/30 10:35:00;;;;;;;48.83;15.88;;;;;;;17.40;26.36;100957.56;5053031;28;20036;-63
2022/04/30 10:37:35;;;;;;;45.00;14.30;;;;;;;17.53;25.71;100965.81;5052907;28;20036;-62
2022/04/30 10:40:06;;;;;;;43.08;14.88;;;;;;;17.58;25.49;100964.09;5052817;28;20049;-62
2022/04/30 10:42:46;;;;;;;44.58;12.68;;;;;;;17.47;25.58;100958.00;5052876;28;20398;-63
2022/04/30 10:45:16;;;;;;;34.75;11.88;;;;;;;17.37;25.48;100955.44;5052925;28;20029;-64
2022/04/30 10:47:53;;;;;;;39.38;12.27;;;;;;;17.40;25.58;100960.31;5052899;28;20109;-63
2022/04/30 10:50:20;;;;;;;41.17;12.85;;;;;;;17.40;25.02;100972.13;5052710;28;20110;-63
2022/04/30 10:52:48;;;;;;;36.90;11.75;;;;;;;17.36;25.42;100962.06;5052719;28;20112;-63
2022/04/30 10:55:16;;;;;;;33.97;11.63;;;;;;;17.29;26.06;100969.88;5053050;28;20090;-63
2022/04/30 10:57:44;;;;;;;38.47;11.98;;;;;;;17.21;25.87;100980.44;5052785;28;20112;-63
2022/04/30 11:00:12;;;;;;;33.30;10.85;;;;;;;17.17;25.85;100968.44;5052833;28;20037;-63
2022/04/30 11:02:39;;;;;;;33.85;10.77;;;;;;;17.24;25.08;100980.97;5052668;28;20033;-62
2022/04/30 11:05:18;;;;;;;39.33;11.68;;;;;;;17.31;25.53;100962.97;5052797;28;20474;-63
2022/04/30 11:07:46;;;;;;;31.05;11.00;;;;;;;17.24;25.96;100970.00;5052887;28;20048;-63
2022/04/30 11:10:13;;;;;;;42.72;11.80;;;;;;;17.17;25.95;100959.38;5052535;28;20025;-63
2022/04/30 11:12:40;;;;;;;36.13;12.25;;;;;;;17.21;25.91;100969.47;5052772;28;20036;-62
2022/04/30 11:15:08;;;;;;;42.92;12.65;;;;;;;17.19;25.96;100957.97;5034681;28;20025;-63
2022/04/30 11:17:46;;;;;;;39.53;12.77;;;;;;;17.20;26.58;100965.09;5034828;28;20037;-64
2022/04/30 11:20:22;;;;;;;61.25;17.92;;;;;;;17.12;26.92;100971.28;5034919;28;20037;-62
2022/04/30 11:23:02;;;;;;;49.90;15.82;;;;;;;17.14;28.30;100970.97;5052396;28;20405;-62
2022/04/30 11:25:37;;;;;;;62.00;18.73;;;;;;;17.06;27.41;100974.44;5052556;28;20037;-62
2022/04/30 11:28:10;;;;;;;99.53;28.02;;;;;;;17.01;27.98;100972.56;5052560;28;20067;-62
2022/04/30 11:30:38;;;;;;;105.80;27.85;;;;;;;16.89;28.38;100964.03;5054387;28;20044;-61
2022/04/30 11:33:06;;;;;;;126.63;33.70;;;;;;;16.84;28.84;100970.38;5056363;28;20079;-63
2022/04/30 11:35:33;;;;;;;121.47;35.35;;;;;;;16.78;29.31;100970.78;5056267;28;20032;-63
2022/04/30 11:38:00;;;;;;;147.68;39.95;;;;;;;16.80;29.10;100961.13;5056178;28;20037;-64
2022/04/30 11:40:27;;;;;;;144.50;40.25;;;;;;;16.80;28.88;100963.88;5056037;28;20036;-63
2022/04/30 11:42:59;;;;;;;123.53;38.65;;;;;;;16.85;29.73;100962.97;5055739;28;20040;-63
2022/04/30 11:45:31;;;;;;;136.07;40.40;;;;;;;16.78;29.67;100957.06;5056083;28;20437;-64
2022/04/30 11:48:03;;;;;;;137.52;40.20;;;;;;;16.74;29.53;100967.03;5055990;28;20029;-63
2022/04/30 11:50:30;;;;;;;138.40;40.92;;;;;;;16.59;29.75;100968.03;5055891;28;20172;-63
2022/04/30 11:52:58;;;;;;;139.27;41.17;;;;;;;16.55;29.93;100970.56;5055744;28;20079;-64
2022/04/30 11:55:25;;;;;;;128.30;39.97;;;;;;;16.57;29.84;100962.88;5055951;28;20028;-63